レシフェ の空港の天気 - METARとTAF

レシフェ・グアララペス国際空港 ( SBRF / REC ) - ブラジル ペルナンブーコ州レシフェ
飛行場実況気象(Metar)
観測時間06/17 21:00 BRT (06/18 00:00 UTC)
風向・風速北西 2m/s
視程10km以上
天気現象周辺でしゅう雨
全天の4割程度の雲 雲底高度 490m
全天の8割程度の雲 雲底高度 1680m
気温24℃
湿度94%
気圧-
METARSBRF 180000Z 31004KT 270V340 9999 VCSH SCT016 BKN055 24/23 Q101 6
過去の天気等 Google飛行場航空写真 Wunderground天気予報

過去48時間のMETAR

飛行場予報(TAF)
発表時間: 6/17 19:00 BRT (6/17 22:00 UTC)
予報対象時間: 17日21時 BRT ~ 18日21時 BRT
風向・風速東南東 4m/s
視程10km以上
少しの雲 雲底高度 300m
全天の4割程度の雲 雲底高度 610m
17日21時 BRT ~ 17日24時 BRT に一時的に
視程4000m
天気現象雨 もや
全天の8割程度の雲 雲底高度 370m
18日6時 BRT ~ 18日8時 BRT に 確率 40% で一時的に
視程5000m
天気現象しゅう雨
18日9時 BRT ~ 18日11時 BRT に徐々に
全天の4割程度の雲 雲底高度 610m
TAF SBRF 172200Z 1800/1824 11008KT 9999 FEW010 SCT020 TN24/1804Z TX28 /1815Z
TEMPO 1800/1803 4000 RA BR BKN012
PROB40 TEMPO 1809/1811 5000 SHRA S CT010 BKN015
BECMG 1812/1814 SCT020 RMK PDU